Time;durP1;ratioP1;P1;durP2;ratioP2;P2;SDS_P1;SDS_P2;PMS_P1;PMS_P2;Temp;Humidity;BMP_temperature;BMP_pressure;BME280_temperature;BME280_humidity;BME280_pressure;Samples;Min_cycle;Max_cycle;Signal;HPM_P1;HPM_P2
2023/07/13 00:00:47;;;;;;;5.57;2.10;;;44.30;31.00;;;;;;5087214;28;20016;-66
2023/07/13 00:03:14;;;;;;;7.88;2.53;;;44.40;31.60;;;;;;5088044;28;20505;-64
2023/07/13 00:05:41;;;;;;;11.02;2.55;;;44.40;31.90;;;;;;5086996;28;20027;-64
2023/07/13 00:08:08;;;;;;;7.38;2.00;;;44.40;32.10;;;;;;5086480;28;20497;-65
2023/07/13 00:10:38;;;;;;;9.35;2.42;;;44.40;31.90;;;;;;5087694;28;20101;-64
2023/07/13 00:13:05;;;;;;;5.30;2.10;;;44.40;31.90;;;;;;5085873;28;20394;-63
2023/07/13 00:15:31;;;;;;;11.50;2.58;;;44.50;28.80;;;;;;5086705;28;20055;-65
2023/07/13 00:18:00;;;;;;;11.27;2.20;;;44.50;30.80;;;;;;5086216;28;20496;-65
2023/07/13 00:20:27;;;;;;;8.70;2.63;;;44.50;30.60;;;;;;5085974;28;20024;-64
2023/07/13 00:22:53;;;;;;;18.95;2.95;;;44.50;28.70;;;;;;5086230;28;20052;-65
2023/07/13 00:25:27;;;;;;;13.73;2.70;;;44.50;27.80;;;;;;5088226;28;20027;-65
2023/07/13 00:27:55;;;;;;;7.15;2.75;;;44.40;27.60;;;;;;5089474;28;20095;-65
2023/07/13 00:30:21;;;;;;;11.05;3.20;;;44.40;27.60;;;;;;5090473;28;20019;-65
2023/07/13 00:32:48;;;;;;;13.02;3.10;;;44.40;27.50;;;;;;5093351;28;20021;-66
2023/07/13 00:35:15;;;;;;;10.50;3.35;;;44.40;27.40;;;;;;5094135;28;20371;-64
2023/07/13 00:37:42;;;;;;;6.28;3.72;;;44.30;27.40;;;;;;5090028;28;20020;-68
2023/07/13 00:40:14;;;;;;;9.57;3.55;;;44.30;27.50;;;;;;5072184;28;20016;-62
2023/07/13 00:42:41;;;;;;;25.65;3.85;;;44.30;27.90;;;;;;5086136;28;20040;-66
2023/07/13 00:45:14;;;;;;;11.07;3.33;;;44.40;27.60;;;;;;5083913;28;20004;-64
2023/07/13 00:47:41;;;;;;;8.73;3.20;;;44.30;27.30;;;;;;5065237;28;20404;-64
2023/07/13 00:50:11;;;;;;;13.05;2.83;;;44.20;27.30;;;;;;5066951;28;20017;-64
2023/07/13 00:52:41;;;;;;;11.23;2.60;;;44.20;27.10;;;;;;5084276;28;20387;-65
2023/07/13 00:55:09;;;;;;;7.65;3.03;;;44.20;27.30;;;;;;5082601;28;20383;-67
2023/07/13 00:57:36;;;;;;;13.38;3.13;;;44.10;27.30;;;;;;5083808;28;20417;-65
2023/07/13 01:00:08;;;;;;;9.88;2.70;;;44.10;27.10;;;;;;5083128;28;20434;-64
2023/07/13 01:02:42;;;;;;;11.07;2.80;;;44.10;27.20;;;;;;5083138;28;20483;-64
2023/07/13 01:05:16;;;;;;;36.65;4.50;;;43.90;27.20;;;;;;5080466;28;20056;-65
2023/07/13 01:07:44;;;;;;;7.78;3.35;;;43.80;27.20;;;;;;5079139;28;20013;-64
2023/07/13 01:10:13;;;;;;;5.68;3.05;;;43.70;27.30;;;;;;5080854;28;20012;-63
2023/07/13 01:12:40;;;;;;;11.68;3.28;;;43.60;27.60;;;;;;5080151;28;20419;-63
2023/07/13 01:15:53;;;;;;;4.75;3.00;;;43.60;27.60;;;;;;5079525;28;20016;-62
2023/07/13 01:18:24;;;;;;;20.27;6.07;;;43.50;27.70;;;;;;5079272;28;20036;-63
2023/07/13 01:21:02;;;;;;;14.75;7.03;;;43.50;27.90;;;;;;5079834;28;20028;-63
2023/07/13 01:23:32;;;;;;;21.17;8.00;;;43.30;27.80;;;;;;5079987;28;20094;-65
2023/07/13 01:26:00;;;;;;;26.90;7.10;;;43.20;27.80;;;;;;5086505;28;20012;-63
2023/07/13 01:28:27;;;;;;;19.65;6.38;;;43.20;27.90;;;;;;5083714;28;20526;-64
2023/07/13 01:30:55;;;;;;;19.02;7.95;;;43.10;28.00;;;;;;5085237;28;20044;-65
2023/07/13 01:33:22;;;;;;;17.08;7.50;;;43.10;28.00;;;;;;5085992;28;20024;-65
2023/07/13 01:35:48;;;;;;;13.80;7.90;;;43.00;28.20;;;;;;5080760;28;20367;-65
2023/07/13 01:38:19;;;;;;;17.52;8.13;;;42.80;28.20;;;;;;5082495;28;20073;-63
2023/07/13 01:40:45;;;;;;;14.10;6.07;;;42.70;28.30;;;;;;5084847;28;20017;-63
2023/07/13 01:43:12;;;;;;;16.90;6.07;;;42.50;28.20;;;;;;5080677;28;20032;-62
2023/07/13 01:45:39;;;;;;;18.77;5.57;;;42.50;28.40;;;;;;5066074;28;20016;-65
2023/07/13 01:48:09;;;;;;;20.33;5.22;;;42.40;28.40;;;;;;5080519;28;20031;-63
2023/07/13 01:50:35;;;;;;;16.40;5.35;;;42.40;28.50;;;;;;5081535;28;20024;-65
2023/07/13 01:53:02;;;;;;;23.73;4.70;;;42.40;28.60;;;;;;5080769;28;20013;-64
2023/07/13 01:55:30;;;;;;;10.80;4.68;;;42.40;28.20;;;;;;5080184;28;20028;-63
2023/07/13 01:57:57;;;;;;;18.90;4.63;;;42.50;28.30;;;;;;5081464;28;20105;-62
2023/07/13 02:00:24;;;;;;;13.10;4.63;;;42.40;28.40;;;;;;5084509;28;20016;-63
2023/07/13 02:02:51;;;;;;;18.35;4.63;;;42.20;28.50;;;;;;5068006;28;20028;-65
2023/07/13 02:05:18;;;;;;;29.20;4.75;;;42.20;28.60;;;;;;5080093;28;20482;-65
2023/07/13 02:07:44;;;;;;;20.08;4.03;;;42.00;28.50;;;;;;5086580;28;20374;-66
2023/07/13 02:10:11;;;;;;;22.08;3.97;;;41.90;28.60;;;;;;5082816;28;20023;-63
2023/07/13 02:12:39;;;;;;;12.02;3.83;;;41.80;28.70;;;;;;5085024;28;20012;-64
2023/07/13 02:15:06;;;;;;;15.63;3.78;;;41.70;29.00;;;;;;5067963;28;20024;-62
2023/07/13 02:17:34;;;;;;;16.95;3.70;;;41.70;29.10;;;;;;5067081;28;20046;-62
2023/07/13 02:20:00;;;;;;;9.50;3.15;;;41.60;29.00;;;;;;5082584;28;20016;-62
2023/07/13 02:22:27;;;;;;;12.18;2.85;;;41.50;28.90;;;;;;5080256;28;20029;-62
2023/07/13 02:24:53;;;;;;;17.85;3.60;;;41.40;29.30;;;;;;5064068;28;20554;-63
2023/07/13 02:27:20;;;;;;;13.15;3.40;;;41.40;29.30;;;;;;5087893;28;20012;-66
2023/07/13 02:29:46;;;;;;;17.38;3.47;;;41.30;29.60;;;;;;5065458;28;20016;-62
2023/07/13 02:32:13;;;;;;;10.20;3.08;;;41.20;30.00;;;;;;5077416;28;20021;-62
2023/07/13 02:34:40;;;;;;;7.63;2.65;;;41.10;29.80;;;;;;5081920;28;20016;-63
2023/07/13 02:37:07;;;;;;;13.27;3.25;;;41.00;29.80;;;;;;5076885;28;20021;-61
2023/07/13 02:39:34;;;;;;;17.85;3.15;;;40.90;30.00;;;;;;5066357;28;20040;-63
2023/07/13 02:42:01;;;;;;;19.05;2.88;;;40.90;29.90;;;;;;5064205;28;20067;-62
2023/07/13 02:44:27;;;;;;;24.77;3.83;;;40.80;29.90;;;;;;5079915;28;20093;-63
2023/07/13 02:46:54;;;;;;;24.27;3.20;;;40.80;30.10;;;;;;5082495;28;20020;-65
2023/07/13 02:49:20;;;;;;;14.43;2.90;;;40.70;31.30;;;;;;5080938;28;20074;-63
2023/07/13 02:51:47;;;;;;;12.75;2.50;;;40.50;30.40;;;;;;5078657;28;20018;-63
2023/07/13 02:54:13;;;;;;;12.15;2.65;;;40.50;30.30;;;;;;5080488;28;20414;-64
2023/07/13 02:56:41;;;;;;;22.02;3.25;;;40.50;30.40;;;;;;5083375;28;20036;-65
2023/07/13 02:59:07;;;;;;;15.35;2.72;;;40.40;31.20;;;;;;5080446;28;20134;-64
2023/07/13 03:01:35;;;;;;;17.50;3.20;;;40.30;30.70;;;;;;5081220;28;20047;-64
2023/07/13 03:04:02;;;;;;;11.25;2.55;;;40.20;30.70;;;;;;5079390;28;20391;-65
2023/07/13 03:06:30;;;;;;;14.15;2.58;;;40.10;30.60;;;;;;5061936;28;20024;-67
2023/07/13 03:08:57;;;;;;;15.68;2.90;;;40.00;30.90;;;;;;5086167;28;20094;-65
2023/07/13 03:11:23;;;;;;;17.98;2.45;;;40.00;30.50;;;;;;5076018;28;20004;-66
2023/07/13 03:13:50;;;;;;;20.48;3.80;;;39.90;30.60;;;;;;5077435;28;20074;-65
2023/07/13 03:16:17;;;;;;;17.00;3.30;;;39.80;31.70;;;;;;5078458;28;20028;-66
2023/07/13 03:18:43;;;;;;;9.05;2.58;;;39.80;31.00;;;;;;5075695;28;20423;-65
2023/07/13 03:21:10;;;;;;;8.25;2.70;;;39.70;30.60;;;;;;5080390;28;20043;-64
2023/07/13 03:23:36;;;;;;;13.10;2.58;;;39.70;30.80;;;;;;5082375;28;20024;-64
2023/07/13 03:26:14;;;;;;;8.77;2.78;;;39.60;30.90;;;;;;5084155;28;20013;-64
2023/07/13 03:28:40;;;;;;;12.68;3.15;;;39.60;30.90;;;;;;5081386;28;20020;-65
2023/07/13 03:31:13;;;;;;;12.23;2.40;;;39.60;31.30;;;;;;5081224;28;20149;-64
2023/07/13 03:33:39;;;;;;;11.23;2.25;;;39.50;31.60;;;;;;5077257;28;20600;-64
2023/07/13 03:36:08;;;;;;;7.80;2.30;;;39.30;31.60;;;;;;5079744;28;20024;-65
2023/07/13 03:38:34;;;;;;;10.32;2.97;;;39.20;31.70;;;;;;5076390;28;20021;-61
2023/07/13 03:41:01;;;;;;;11.88;3.17;;;39.20;31.70;;;;;;5062432;28;20017;-63
2023/07/13 03:43:27;;;;;;;10.93;3.15;;;39.10;31.90;;;;;;5081097;28;20084;-64
2023/07/13 03:45:54;;;;;;;13.05;2.88;;;39.00;32.30;;;;;;5078259;28;20020;-63
2023/07/13 03:48:20;;;;;;;8.73;2.75;;;39.00;32.20;;;;;;5079447;28;20008;-64
2023/07/13 03:50:49;;;;;;;11.18;2.78;;;38.80;31.90;;;;;;5076543;28;20164;-63
2023/07/13 03:53:16;;;;;;;5.75;2.15;;;38.70;32.30;;;;;;5081182;28;20035;-65
2023/07/13 03:55:44;;;;;;;8.60;2.55;;;38.70;32.10;;;;;;5076666;28;20125;-63
2023/07/13 03:58:30;;;;;;;8.57;2.55;;;38.70;32.30;;;;;;5083788;28;20042;-63
2023/07/13 04:00:58;;;;;;;9.18;2.60;;;38.70;32.20;;;;;;5080422;28;20024;-64
2023/07/13 04:03:27;;;;;;;13.85;3.00;;;38.60;32.40;;;;;;5087060;28;20059;-64
2023/07/13 04:05:59;;;;;;;9.65;2.80;;;38.60;32.20;;;;;;5078470;28;20432;-63
2023/07/13 04:08:28;;;;;;;16.50;3.10;;;38.50;32.30;;;;;;5082106;28;20051;-63
2023/07/13 04:10:54;;;;;;;18.77;3.00;;;38.40;32.40;;;;;;5083613;28;22112;-64
2023/07/13 04:13:21;;;;;;;11.25;3.03;;;38.40;32.40;;;;;;5085383;28;20352;-63
2023/07/13 04:15:47;;;;;;;7.75;2.42;;;38.40;32.50;;;;;;5081366;28;20030;-66
2023/07/13 04:18:14;;;;;;;6.88;2.55;;;38.30;32.60;;;;;;5078512;28;20025;-65
2023/07/13 04:20:40;;;;;;;8.00;2.88;;;38.30;32.60;;;;;;5081596;28;20065;-64
2023/07/13 04:23:07;;;;;;;17.70;3.40;;;38.20;32.80;;;;;;5081092;28;20013;-65
2023/07/13 04:25:33;;;;;;;16.33;2.92;;;38.20;33.00;;;;;;5084652;28;20220;-65
2023/07/13 04:27:59;;;;;;;8.70;2.83;;;38.10;32.80;;;;;;5087690;28;20965;-63
2023/07/13 04:30:26;;;;;;;15.95;2.63;;;38.10;32.90;;;;;;5081947;28;20049;-63
2023/07/13 04:32:53;;;;;;;9.30;2.83;;;38.00;32.90;;;;;;5081848;28;20401;-62
2023/07/13 04:35:20;;;;;;;18.45;3.30;;;38.00;32.70;;;;;;5080652;28;20069;-65
2023/07/13 04:37:50;;;;;;;11.55;2.63;;;38.00;32.70;;;;;;5082638;28;20039;-64
2023/07/13 04:40:21;;;;;;;7.30;2.78;;;37.90;32.90;;;;;;5087023;28;20061;-63
2023/07/13 04:42:47;;;;;;;13.32;3.50;;;37.90;32.90;;;;;;5067513;28;20071;-63
2023/07/13 04:45:15;;;;;;;15.40;2.85;;;37.80;32.80;;;;;;5080361;28;20500;-63
2023/07/13 04:47:41;;;;;;;10.05;2.72;;;37.80;33.00;;;;;;5083378;28;20053;-64
2023/07/13 04:50:15;;;;;;;9.32;2.55;;;37.70;33.30;;;;;;5082852;28;20119;-65
2023/07/13 04:52:42;;;;;;;6.00;2.67;;;37.60;33.30;;;;;;5079164;28;20040;-65
2023/07/13 04:55:09;;;;;;;5.80;2.72;;;37.50;33.60;;;;;;5079650;28;20016;-67
2023/07/13 04:57:35;;;;;;;8.90;2.80;;;37.50;33.70;;;;;;5080934;28;20046;-61
2023/07/13 05:00:06;;;;;;;18.23;2.80;;;37.50;33.70;;;;;;5082665;28;20062;-64
2023/07/13 05:02:35;;;;;;;13.05;2.75;;;37.40;33.60;;;;;;5088683;28;20062;-60
2023/07/13 05:05:03;;;;;;;9.90;2.88;;;37.40;33.80;;;;;;5087615;28;20136;-65
2023/07/13 05:07:30;;;;;;;12.10;3.47;;;37.40;34.10;;;;;;5088997;28;20447;-63
2023/07/13 05:09:56;;;;;;;12.80;2.97;;;37.30;34.20;;;;;;5088595;28;20053;-63
2023/07/13 05:12:22;;;;;;;5.75;2.63;;;37.30;34.30;;;;;;5088882;28;20041;-64
2023/07/13 05:14:49;;;;;;;16.05;3.42;;;37.20;34.20;;;;;;5089738;28;20105;-65
2023/07/13 05:17:16;;;;;;;12.07;3.30;;;37.20;34.10;;;;;;5089726;28;20100;-65
2023/07/13 05:19:42;;;;;;;14.13;3.20;;;37.10;34.30;;;;;;5088191;28;20401;-62
2023/07/13 05:22:09;;;;;;;9.68;2.50;;;37.10;34.50;;;;;;5088768;28;20582;-61
2023/07/13 05:24:36;;;;;;;10.07;2.45;;;37.00;34.50;;;;;;5089406;28;20050;-62
2023/07/13 05:27:02;;;;;;;4.95;2.05;;;37.00;34.80;;;;;;5089096;28;20067;-62
2023/07/13 05:29:29;;;;;;;5.30;2.00;;;36.90;35.10;;;;;;5089622;28;20136;-64
2023/07/13 05:31:55;;;;;;;10.07;1.90;;;36.80;35.30;;;;;;5086446;28;20648;-63
2023/07/13 05:34:22;;;;;;;6.90;2.30;;;36.70;35.50;;;;;;5089354;28;20511;-63
2023/07/13 05:36:49;;;;;;;9.90;2.17;;;36.70;35.70;;;;;;5070746;28;20434;-63
2023/07/13 05:39:16;;;;;;;7.15;2.13;;;36.70;36.40;;;;;;5088999;28;20079;-64
2023/07/13 05:41:43;;;;;;;11.40;2.22;;;36.60;36.00;;;;;;5087511;28;20144;-62
2023/07/13 05:44:09;;;;;;;7.50;1.98;;;36.50;36.30;;;;;;5086711;28;20079;-67
2023/07/13 05:46:36;;;;;;;8.90;5.97;;;36.50;36.40;;;;;;5087406;28;20081;-65
2023/07/13 05:49:03;;;;;;;5.88;2.10;;;36.40;36.50;;;;;;5088742;28;20118;-63
2023/07/13 05:51:29;;;;;;;5.82;2.10;;;36.40;36.30;;;;;;5088514;28;20042;-64
2023/07/13 05:53:56;;;;;;;17.52;2.90;;;36.30;36.20;;;;;;5082215;28;20058;-64
2023/07/13 05:56:23;;;;;;;26.27;3.30;;;36.30;36.50;;;;;;5065168;28;20080;-64
2023/07/13 05:58:49;;;;;;;16.80;3.80;;;36.20;36.60;;;;;;5083032;28;20101;-63
2023/07/13 06:01:17;;;;;;;14.43;2.72;;;36.20;36.80;;;;;;5086831;28;20053;-64
2023/07/13 06:03:44;;;;;;;5.72;2.72;;;36.20;36.80;;;;;;5087461;28;20080;-63
2023/07/13 06:06:11;;;;;;;8.52;2.70;;;36.20;36.30;;;;;;5082454;28;20514;-61
2023/07/13 06:08:38;;;;;;;54.03;4.38;;;36.20;36.50;;;;;;5087369;28;20064;-63
2023/07/13 06:11:07;;;;;;;22.58;3.20;;;36.10;36.50;;;;;;5087465;28;20130;-63
2023/07/13 06:13:34;;;;;;;12.57;2.53;;;36.10;36.80;;;;;;5068987;28;20052;-66
2023/07/13 06:16:04;;;;;;;12.88;2.88;;;36.10;36.80;;;;;;5087329;28;20088;-64
2023/07/13 06:18:31;;;;;;;8.80;3.10;;;36.00;36.50;;;;;;5068111;28;20049;-63
2023/07/13 06:20:58;;;;;;;7.80;2.83;;;36.10;36.40;;;;;;5087101;28;20054;-64
2023/07/13 06:23:25;;;;;;;7.80;2.15;;;36.00;36.20;;;;;;5085212;28;20057;-64
2023/07/13 06:25:51;;;;;;;9.02;2.35;;;36.00;36.30;;;;;;5087908;28;20038;-62
2023/07/13 06:28:18;;;;;;;8.25;2.35;;;36.00;36.50;;;;;;5087624;28;20132;-64
2023/07/13 06:30:44;;;;;;;5.07;2.53;;;36.00;37.00;;;;;;5086968;28;20044;-65
2023/07/13 06:33:11;;;;;;;8.70;2.75;;;36.00;36.60;;;;;;5087535;28;20045;-61
2023/07/13 06:35:37;;;;;;;6.70;2.65;;;35.90;36.80;;;;;;5087161;28;20083;-62
2023/07/13 06:38:04;;;;;;;10.98;2.67;;;35.90;37.80;;;;;;5085835;28;20058;-61
2023/07/13 06:40:31;;;;;;;14.48;2.83;;;35.80;37.20;;;;;;5085403;28;20055;-64
2023/07/13 06:42:57;;;;;;;8.15;2.78;;;35.70;36.90;;;;;;5086349;28;20135;-64
2023/07/13 06:45:24;;;;;;;8.35;2.75;;;35.70;37.20;;;;;;5086224;28;20526;-61
2023/07/13 06:47:50;;;;;;;9.57;2.85;;;35.70;38.00;;;;;;5084726;28;20050;-62
2023/07/13 06:50:17;;;;;;;10.02;2.85;;;35.70;38.30;;;;;;5081060;28;20050;-64
2023/07/13 06:52:43;;;;;;;6.93;2.83;;;35.60;37.90;;;;;;5086992;28;20563;-62
2023/07/13 06:55:10;;;;;;;9.35;2.72;;;35.60;37.90;;;;;;5087124;28;20532;-63
2023/07/13 06:57:36;;;;;;;9.07;2.58;;;35.50;38.10;;;;;;5084985;28;20140;-62
2023/07/13 07:00:03;;;;;;;10.13;3.03;;;35.50;37.80;;;;;;5083934;28;20055;-61
2023/07/13 07:02:29;;;;;;;8.93;3.00;;;35.50;37.70;;;;;;5083859;28;20090;-60
2023/07/13 07:04:56;;;;;;;11.13;2.92;;;35.50;38.30;;;;;;5085498;28;20041;-61
2023/07/13 07:07:25;;;;;;;14.75;3.17;;;35.50;37.90;;;;;;5078114;28;20043;-61
2023/07/13 07:09:51;;;;;;;8.80;3.25;;;35.50;38.00;;;;;;5082977;28;20089;-60
2023/07/13 07:12:17;;;;;;;5.72;2.92;;;35.50;38.60;;;;;;5081270;28;20429;-61
2023/07/13 07:14:44;;;;;;;17.35;3.05;;;35.40;38.10;;;;;;5081545;28;20070;-62
2023/07/13 07:17:10;;;;;;;6.80;2.80;;;35.40;38.00;;;;;;5086219;28;20484;-63
2023/07/13 07:19:38;;;;;;;8.02;2.80;;;35.40;38.10;;;;;;5086785;28;20055;-62
2023/07/13 07:22:05;;;;;;;11.63;2.90;;;35.30;38.30;;;;;;5084605;28;20527;-63
2023/07/13 07:24:31;;;;;;;10.18;2.85;;;35.40;38.40;;;;;;5077508;28;20095;-62
2023/07/13 07:26:58;;;;;;;7.03;2.90;;;35.30;38.30;;;;;;5086132;28;20063;-61
2023/07/13 07:29:26;;;;;;;8.90;3.20;;;35.30;38.50;;;;;;5087695;28;21586;-62
2023/07/13 07:31:52;;;;;;;8.35;2.85;;;35.30;38.50;;;;;;5075797;28;20048;-62
2023/07/13 07:34:19;;;;;;;6.88;2.90;;;35.30;38.40;;;;;;5084771;28;20060;-62
2023/07/13 07:36:45;;;;;;;7.43;3.10;;;35.30;38.60;;;;;;5083271;28;20149;-61
2023/07/13 07:39:12;;;;;;;7.47;3.17;;;35.20;38.60;;;;;;5085462;28;20059;-60
2023/07/13 07:41:39;;;;;;;3.83;2.85;;;35.20;38.70;;;;;;5082334;28;21025;-64
2023/07/13 07:44:07;;;;;;;5.95;3.00;;;35.30;38.80;;;;;;5080678;28;20117;-62
2023/07/13 07:46:33;;;;;;;8.27;3.20;;;35.30;38.90;;;;;;5079215;28;20052;-62
2023/07/13 07:49:00;;;;;;;5.93;3.03;;;35.10;38.90;;;;;;5085803;28;20050;-62
2023/07/13 07:51:26;;;;;;;11.13;3.00;;;35.10;38.80;;;;;;5083026;28;20077;-64
2023/07/13 07:53:53;;;;;;;10.65;2.97;;;35.00;38.80;;;;;;5085713;28;20054;-61
2023/07/13 07:56:19;;;;;;;5.95;3.28;;;34.90;38.90;;;;;;5081126;28;20502;-61
2023/07/13 07:58:46;;;;;;;9.27;3.03;;;34.90;39.10;;;;;;5085532;28;20063;-62
2023/07/13 08:01:12;;;;;;;11.48;3.78;;;34.90;39.20;;;;;;5084560;28;20548;-61
2023/07/13 08:03:39;;;;;;;7.75;3.38;;;34.90;39.20;;;;;;5062290;28;20073;-64
2023/07/13 08:06:05;;;;;;;19.05;3.90;;;34.90;39.60;;;;;;5079592;28;20064;-61
2023/07/13 08:08:31;;;;;;;15.45;4.63;;;34.90;39.40;;;;;;5079145;28;20046;-63
2023/07/13 08:11:02;;;;;;;18.88;6.25;;;34.90;39.30;;;;;;5085967;28;20131;-62
2023/07/13 08:13:28;;;;;;;24.52;7.95;;;34.90;39.20;;;;;;5083442;28;20057;-61
2023/07/13 08:15:54;;;;;;;20.10;8.55;;;34.80;39.30;;;;;;5076175;28;20062;-65
2023/07/13 08:18:21;;;;;;;22.80;8.65;;;34.90;39.00;;;;;;5081782;28;20134;-63
2023/07/13 08:20:47;;;;;;;28.42;9.82;;;34.80;38.90;;;;;;5084839;28;20080;-61
2023/07/13 08:23:15;;;;;;;35.33;10.15;;;34.80;38.90;;;;;;5083240;28;20137;-63
2023/07/13 08:25:41;;;;;;;36.60;10.68;;;34.60;38.80;;;;;;5086491;28;20059;-64
2023/07/13 08:28:07;;;;;;;30.95;10.02;;;34.60;39.10;;;;;;5086755;28;20539;-64
2023/07/13 08:30:36;;;;;;;29.02;10.80;;;34.60;39.20;;;;;;5085563;28;20098;-61
2023/07/13 08:33:02;;;;;;;31.85;9.90;;;34.60;39.30;;;;;;5087093;28;20524;-65
2023/07/13 08:35:29;;;;;;;26.77;10.85;;;34.50;39.20;;;;;;5079068;28;20080;-61
2023/07/13 08:37:55;;;;;;;34.50;10.77;;;34.50;39.60;;;;;;5085344;28;20063;-62
2023/07/13 08:40:25;;;;;;;38.92;11.18;;;34.50;39.70;;;;;;5086422;28;20063;-63
2023/07/13 08:42:58;;;;;;;39.90;9.55;;;34.40;39.60;;;;;;5079533;28;20076;-60
2023/07/13 08:45:50;;;;;;;33.50;9.60;;;34.50;39.80;;;;;;5086786;28;20488;-67
2023/07/13 08:48:19;;;;;;;26.33;8.35;;;34.50;40.10;;;;;;5090142;28;20514;-63
2023/07/13 08:50:51;;;;;;;22.85;8.27;;;34.40;39.90;;;;;;5090904;28;20046;-66
2023/07/13 08:53:19;;;;;;;20.88;7.25;;;34.40;39.90;;;;;;5090066;28;20085;-62
2023/07/13 08:55:46;;;;;;;24.08;7.47;;;34.40;39.70;;;;;;5090995;28;20085;-60
2023/07/13 08:58:18;;;;;;;29.90;7.03;;;34.40;39.60;;;;;;5091191;28;20092;-65
2023/07/13 09:01:04;;;;;;;27.65;6.65;;;34.30;40.10;;;;;;5091078;28;20066;-63
2023/07/13 09:03:40;;;;;;;37.80;6.97;;;34.30;40.50;;;;;;5090772;28;20119;-65
2023/07/13 09:06:11;;;;;;;32.42;6.63;;;34.30;40.00;;;;;;5090556;28;20109;-61
2023/07/13 09:08:46;;;;;;;26.95;6.30;;;34.20;40.10;;;;;;5090985;28;20134;-64
2023/07/13 09:11:27;;;;;;;32.03;7.05;;;34.20;40.30;;;;;;5090027;28;20358;-62
2023/07/13 09:14:00;;;;;;;31.92;6.35;;;34.20;40.80;;;;;;5089995;28;20063;-66
2023/07/13 09:16:26;;;;;;;29.65;7.07;;;34.20;40.60;;;;;;5089963;28;20094;-67
2023/07/13 09:18:57;;;;;;;36.80;6.93;;;34.20;40.50;;;;;;5089259;28;20065;-65
2023/07/13 09:21:33;;;;;;;29.55;6.57;;;34.20;40.90;;;;;;5090114;28;20158;-66
2023/07/13 09:24:21;;;;;;;24.23;7.10;;;34.20;41.30;;;;;;5089201;28;20142;-63
2023/07/13 09:26:48;;;;;;;32.30;7.07;;;34.10;41.40;;;;;;5071061;28;20120;-62
2023/07/13 09:29:30;;;;;;;24.13;6.32;;;34.00;42.00;;;;;;5089559;28;20067;-62
2023/07/13 09:32:00;;;;;;;24.73;5.65;;;34.00;42.50;;;;;;5089249;28;20146;-64
2023/07/13 09:34:30;;;;;;;19.80;5.70;;;33.90;42.60;;;;;;5089647;28;20106;-62
2023/07/13 09:36:56;;;;;;;15.05;4.50;;;33.80;42.40;;;;;;5070321;28;20480;-62
2023/07/13 09:39:43;;;;;;;19.00;4.28;;;33.80;42.40;;;;;;5090076;28;20180;-62
2023/07/13 09:42:15;;;;;;;;;;;33.80;42.70;;;;;;5088351;28;20102;-66
2023/07/13 09:44:48;;;;;;;16.25;4.90;;;33.80;43.30;;;;;;5088683;28;19963;-61
2023/07/13 09:47:23;;;;;;;11.82;4.00;;;33.80;43.40;;;;;;5084990;28;20068;-62
2023/07/13 09:50:01;;;;;;;7.75;3.42;;;33.70;42.90;;;;;;5075896;28;20053;-60
2023/07/13 09:52:40;;;;;;;12.52;3.50;;;33.60;43.00;;;;;;5086790;28;20054;-61
2023/07/13 09:55:23;;;;;;;8.90;3.40;;;33.60;42.80;;;;;;5081921;28;20410;-63
2023/07/13 09:57:51;;;;;;;10.50;3.60;;;33.70;43.70;;;;;;5084029;28;20159;-62
2023/07/13 10:00:27;;;;;;;12.13;4.43;;;33.70;43.70;;;;;;5085119;28;20058;-62
2023/07/13 10:03:00;;;;;;;8.35;4.30;;;33.70;42.90;;;;;;5085943;28;20094;-61
2023/07/13 10:05:27;;;;;;;11.38;4.35;;;33.60;43.00;;;;;;5084522;28;20058;-63
2023/07/13 10:07:56;;;;;;;10.75;4.13;;;33.60;42.80;;;;;;5087613;28;20581;-63
2023/07/13 10:10:23;;;;;;;14.18;4.00;;;33.60;43.50;;;;;;5086778;28;20091;-63
2023/07/13 10:12:51;;;;;;;8.35;3.63;;;33.60;43.10;;;;;;5084837;28;20058;-62
2023/07/13 10:15:25;;;;;;;12.43;3.95;;;33.60;43.20;;;;;;5084523;28;20055;-61
2023/07/13 10:17:57;;;;;;;17.08;4.40;;;33.60;43.20;;;;;;5084277;28;20057;-62
2023/07/13 10:20:26;;;;;;;14.63;3.88;;;33.60;43.10;;;;;;5077116;28;20116;-63
2023/07/13 10:23:22;;;;;;;11.90;3.35;;;33.60;43.20;;;;;;5086326;28;20078;-61
2023/07/13 10:25:49;;;;;;;13.68;4.03;;;33.60;43.20;;;;;;5081689;28;20085;-62
2023/07/13 10:28:34;;;;;;;10.25;4.18;;;33.60;43.20;;;;;;5085930;28;20111;-62
2023/07/13 10:31:02;;;;;;;12.02;3.60;;;33.60;43.20;;;;;;5082188;28;20105;-62
2023/07/13 10:33:29;;;;;;;12.48;4.07;;;33.60;43.90;;;;;;5082012;28;20728;-60
2023/07/13 10:36:12;;;;;;;8.63;3.97;;;33.60;44.00;;;;;;5080813;28;21923;-63
2023/07/13 10:38:39;;;;;;;15.15;3.80;;;33.50;43.70;;;;;;5081564;28;20082;-62
2023/07/13 10:41:14;;;;;;;11.63;3.67;;;33.50;43.90;;;;;;5083921;28;20455;-61
2023/07/13 10:43:50;;;;;;;8.52;3.70;;;33.50;43.70;;;;;;5080323;28;20145;-62
2023/07/13 10:46:23;;;;;;;9.35;3.80;;;33.50;43.70;;;;;;5078631;28;20521;-60
2023/07/13 10:48:55;;;;;;;13.18;3.70;;;33.50;44.20;;;;;;5083790;28;20060;-62
2023/07/13 10:51:22;;;;;;;10.73;3.50;;;33.40;44.40;;;;;;5086709;28;20060;-61
2023/07/13 10:54:16;;;;;;;9.77;3.78;;;33.40;44.70;;;;;;5088353;28;20065;-61
2023/07/13 10:56:42;;;;;;;10.60;3.45;;;33.40;45.40;;;;;;5087188;28;20533;-62
2023/07/13 10:59:09;;;;;;;9.38;3.60;;;33.30;46.20;;;;;;5084678;28;20142;-61
2023/07/13 11:01:50;;;;;;;7.90;3.88;;;33.20;45.40;;;;;;5085364;28;20100;-61
2023/07/13 11:04:20;;;;;;;7.03;3.63;;;33.10;45.70;;;;;;5085539;28;20115;-61
2023/07/13 11:06:49;;;;;;;6.40;3.50;;;33.10;46.40;;;;;;5069255;28;20055;-62
2023/07/13 11:09:22;;;;;;;8.27;3.28;;;33.00;46.30;;;;;;5087887;28;20100;-60
2023/07/13 11:11:48;;;;;;;10.82;3.67;;;33.00;46.00;;;;;;5083280;28;20057;-62
2023/07/13 11:14:39;;;;;;;8.05;3.03;;;33.00;46.70;;;;;;5084069;28;20120;-61
2023/07/13 11:17:31;;;;;;;9.13;2.90;;;33.00;45.60;;;;;;5080062;28;20412;-63
2023/07/13 11:20:12;;;;;;;9.18;2.80;;;33.00;45.70;;;;;;5082835;28;20105;-63
2023/07/13 11:22:51;;;;;;;8.90;3.05;;;33.00;45.70;;;;;;5081929;28;20054;-64
2023/07/13 11:25:32;;;;;;;9.38;3.40;;;33.00;45.40;;;;;;5082138;28;20056;-61
2023/07/13 11:28:12;;;;;;;13.82;3.10;;;33.00;45.50;;;;;;5068811;28;20052;-62
2023/07/13 11:30:47;;;;;;;6.50;2.90;;;33.00;45.70;;;;;;5071993;28;20612;-61
2023/07/13 11:33:13;;;;;;;8.05;3.47;;;33.00;46.20;;;;;;5077545;28;20076;-62
2023/07/13 11:36:04;;;;;;;8.95;3.00;;;33.00;46.30;;;;;;5084025;28;20087;-61
2023/07/13 11:38:42;;;;;;;9.70;2.85;;;33.00;46.10;;;;;;5073571;28;20425;-61
2023/07/13 11:41:21;;;;;;;5.97;3.20;;;33.00;46.20;;;;;;5077561;28;20054;-61
2023/07/13 11:43:54;;;;;;;9.23;3.15;;;33.00;46.10;;;;;;5083190;28;20080;-62
2023/07/13 11:46:27;;;;;;;5.25;2.70;;;33.00;46.20;;;;;;5078941;28;20392;-64
2023/07/13 11:48:53;;;;;;;7.18;2.30;;;33.00;46.30;;;;;;5080019;28;20068;-62
2023/07/13 11:51:32;;;;;;;9.18;2.47;;;33.00;46.20;;;;;;5081179;28;20121;-63
2023/07/13 11:54:29;;;;;;;5.55;2.50;;;33.10;46.40;;;;;;5082646;28;20559;-60
2023/07/13 11:57:00;;;;;;;8.07;2.30;;;33.10;46.60;;;;;;5075637;28;20097;-61
2023/07/13 11:59:27;;;;;;;4.82;2.17;;;33.00;46.70;;;;;;5085321;28;20093;-62
2023/07/13 12:01:55;;;;;;;3.92;2.08;;;33.10;46.60;;;;;;5082318;28;20057;-61
2023/07/13 12:04:31;;;;;;;5.78;2.08;;;33.10;46.60;;;;;;5078520;28;20069;-61
2023/07/13 12:07:04;;;;;;;5.60;1.83;;;33.10;47.00;;;;;;5075879;28;20536;-61
2023/07/13 12:09:30;;;;;;;6.15;1.75;;;33.00;46.60;;;;;;5083266;28;20065;-60
2023/07/13 12:12:00;;;;;;;5.05;1.85;;;33.00;47.00;;;;;;5083378;28;20608;-62
2023/07/13 12:14:26;;;;;;;9.65;1.92;;;33.00;47.60;;;;;;5085810;28;20149;-62
2023/07/13 12:16:54;;;;;;;7.80;2.08;;;32.90;47.30;;;;;;5083629;28;20074;-61
2023/07/13 12:19:23;;;;;;;9.57;2.97;;;32.90;47.20;;;;;;5067712;28;20068;-62
2023/07/13 12:21:53;;;;;;;7.47;3.45;;;32.90;47.20;;;;;;5069629;28;20057;-60
2023/07/13 12:24:22;;;;;;;11.32;3.55;;;32.90;47.60;;;;;;5089266;28;20125;-60
2023/07/13 12:26:55;;;;;;;11.30;3.00;;;32.80;47.50;;;;;;5086321;28;20069;-62
2023/07/13 12:29:22;;;;;;;5.53;2.00;;;32.80;47.50;;;;;;5085383;28;20053;-60
2023/07/13 12:31:50;;;;;;;12.50;1.75;;;32.70;48.20;;;;;;5088381;28;20106;-61
2023/07/13 12:34:21;;;;;;;5.00;1.35;;;32.60;47.90;;;;;;5089796;28;20148;-61
2023/07/13 12:36:56;;;;;;;6.53;1.67;;;32.60;48.50;;;;;;5088405;28;20101;-62
2023/07/13 12:39:28;;;;;;;5.85;1.70;;;32.50;48.70;;;;;;5087932;28;20098;-60
2023/07/13 12:42:09;;;;;;;9.50;1.40;;;32.50;49.00;;;;;;5086089;28;20054;-61
2023/07/13 12:44:42;;;;;;;8.95;1.80;;;32.50;49.30;;;;;;5089486;28;20180;-63
2023/07/13 12:47:15;;;;;;;15.00;1.65;;;32.40;49.50;;;;;;5087404;28;20067;-62
2023/07/13 12:49:47;;;;;;;8.85;1.98;;;32.30;49.40;;;;;;5086655;28;20492;-60
2023/07/13 12:52:20;;;;;;;16.65;2.20;;;32.30;49.60;;;;;;5091409;28;20073;-60